CDT,Max TemperatureF,Mean TemperatureF,Min TemperatureF,Max Dew PointF,MeanDew PointF,Min DewpointF,Max Humidity, Mean Humidity, Min Humidity, Max Sea Level PressureIn, Mean Sea Level PressureIn, Min Sea Level PressureIn, Max VisibilityMiles, Mean VisibilityMiles, Min VisibilityMiles, Max Wind SpeedMPH, Mean Wind SpeedMPH, Max Gust SpeedMPH,PrecipitationIn, CloudCover, Events, WindDirDegrees
2010-10-1,73,58,43,52,45,40,93,62,31,30.18,30.11,30.01,10,9,2,12,4,16,0.00,0,,279
2010-10-2,61,53,45,50,44,38,96,70,44,30.28,30.13,29.99,10,9,4,23,13,32,0.18,5,Rain,360
2010-10-3,61,49,37,40,37,35,89,64,39,30.40,30.35,30.28,10,10,10,20,10,24,0.00,1,,15
2010-10-4,62,50,37,40,37,34,92,66,39,30.45,30.39,30.35,10,10,10,13,6,17,0.00,0,,7
2010-10-5,68,52,36,41,36,33,92,61,29,30.45,30.37,30.31,10,10,6,10,2,13,0.00,0,Rain,316
2010-10-6,76,59,42,49,44,38,89,61,33,30.29,30.17,30.03,10,10,10,15,7,20,0.00,0,,265
2010-10-7,79,64,49,50,45,36,99,99,99,30.17,30.11,30.04,10,10,10,10,7,,0.00,0,,320
2010-10-8,80,61,41,46,43,39,89,59,28,30.17,30.11,30.05,10,9,5,12,4,15,0.00,0,,228
2010-10-9,86,68,50,57,51,42,78,56,34,30.09,30.04,29.99,10,10,7,10,3,12,0.00,0,,242
2010-10-10,85,68,51,58,50,44,93,59,25,30.02,29.95,29.87,10,10,6,17,4,21,0.00,0,,220
2010-10-11,83,69,54,54,50,47,77,53,28,29.89,29.86,29.81,10,10,10,10,3,15,0.00,0,,249
2010-10-12,79,67,54,56,52,49,83,61,39,29.97,29.91,29.86,10,10,10,10,3,17,0.00,1,,358
2010-10-13,69,60,51,56,48,33,86,60,34,30.17,30.07,29.97,10,10,8,22,10,29,0.06,2,Rain,328
2010-10-14,68,54,39,37,33,28,76,49,22,30.19,30.07,29.86,10,10,10,16,8,22,0.00,0,,269
2010-10-15,65,53,40,39,37,34,85,61,37,30.17,30.06,29.85,10,10,7,17,9,22,0.00,0,,330
2010-10-16,73,56,38,42,37,33,86,56,25,30.19,30.11,30.03,10,10,10,20,9,24,0.00,0,,205
2010-10-17,74,60,46,45,41,36,76,53,29,30.11,30.05,30.02,10,10,10,13,5,16,0.00,0,,11
2010-10-18,67,56,44,39,34,27,71,49,26,30.03,30.00,29.95,10,10,10,17,8,22,T,2,,54
2010-10-19,65,50,35,39,35,32,82,57,31,30.08,30.02,29.98,10,10,10,10,3,14,0.00,0,,295
2010-10-20,72,56,39,40,35,32,79,52,25,29.98,29.89,29.82,10,10,7,20,10,26,0.00,0,,242
2010-10-21,62,50,38,37,32,27,76,52,27,30.11,29.99,29.83,10,10,10,17,8,26,0.00,0,,306
2010-10-22,70,51,31,36,32,27,85,54,23,30.20,30.12,30.06,10,10,10,16,8,23,0.00,1,,170
2010-10-23,80,70,60,48,41,35,48,40,31,30.06,29.98,29.91,10,10,10,23,14,32,T,3,Rain,188
2010-10-24,76,67,57,63,53,40,70,54,37,29.91,29.77,29.64,10,10,10,26,15,37,0.01,4,Rain-Thunderstorm,192
2010-10-25,75,65,54,63,59,54,93,75,57,29.65,29.53,29.32,10,9,4,28,16,38,0.00,3,,188
2010-10-26,74,63,51,64,49,34,75,53,31,29.62,29.33,29.10,10,9,1,40,20,52,0.49,2,Rain-Thunderstorm,223
2010-10-27,68,58,48,36,32,22,54,36,18,29.97,29.75,29.63,10,10,10,31,17,45,0.00,0,,239
2010-10-28,48,41,34,33,31,29,82,64,46,30.39,30.23,29.99,10,10,10,23,13,33,0.00,6,,296
2010-10-29,54,42,30,31,26,20,89,58,26,30.43,30.33,30.16,10,10,9,12,5,15,0.00,0,,249
2010-10-30,67,54,41,37,31,24,66,47,28,30.14,29.96,29.85,10,10,10,25,12,32,0.00,0,,234
2010-10-31,57,48,38,40,33,27,89,62,35,30.30,30.14,29.94,10,10,9,22,13,26,0.00,0,,44